Time;durP1;ratioP1;P1;durP2;ratioP2;P2;SDS_P1;SDS_P2;PMS_P1;PMS_P2;Temp;Humidity;BMP_temperature;BMP_pressure;BME280_temperature;BME280_humidity;BME280_pressure;Samples;Min_cycle;Max_cycle;Signal;HPM_P1;HPM_P2
2023/04/26 00:00:43;;;;;;;1999.90;999.90;;;5.10;99.90;;;;;;5053998;28;20032;-73
2023/04/26 00:03:09;;;;;;;1999.90;999.90;;;5.10;99.90;;;;;;5064709;28;20028;-72
2023/04/26 00:05:36;;;;;;;1999.90;999.90;;;5.00;99.90;;;;;;5072548;28;20477;-73
2023/04/26 00:08:03;;;;;;;1999.90;999.90;;;5.00;99.90;;;;;;5053181;28;20079;-74
2023/04/26 00:10:29;;;;;;;1999.90;999.90;;;4.90;99.90;;;;;;5071183;28;20671;-73
2023/04/26 00:12:54;;;;;;;1999.90;999.90;;;5.00;99.90;;;;;;5054125;28;20498;-73
2023/04/26 00:15:20;;;;;;;1999.90;999.90;;;4.90;99.90;;;;;;5063085;28;20210;-73
2023/04/26 00:17:46;;;;;;;1999.90;999.90;;;5.00;99.90;;;;;;5027811;28;20475;-73
2023/04/26 00:20:13;;;;;;;1999.90;999.90;;;5.00;99.90;;;;;;5065178;28;20021;-73
2023/04/26 00:22:38;;;;;;;1999.90;999.90;;;5.10;99.90;;;;;;5052567;28;20024;-74
2023/04/26 00:25:05;;;;;;;1999.90;999.90;;;5.20;99.90;;;;;;5063485;28;20040;-73
2023/04/26 00:27:30;;;;;;;1999.90;999.90;;;5.20;99.90;;;;;;5069608;28;20040;-73
2023/04/26 00:29:56;;;;;;;1999.90;999.90;;;5.10;99.90;;;;;;5046966;28;20033;-74
2023/04/26 00:32:22;;;;;;;1999.90;999.90;;;5.20;99.90;;;;;;5069358;28;20115;-73
2023/04/26 00:34:47;;;;;;;1999.90;999.90;;;5.00;99.90;;;;;;5068867;28;20394;-74
2023/04/26 00:37:13;;;;;;;1999.90;999.90;;;5.10;99.90;;;;;;5050260;28;20552;-74
2023/04/26 00:39:39;;;;;;;1999.90;999.90;;;5.00;99.90;;;;;;5069447;28;20032;-74
2023/04/26 00:42:05;;;;;;;1999.90;999.90;;;4.90;99.90;;;;;;5066315;28;20577;-74
2023/04/26 00:44:30;;;;;;;1999.90;999.90;;;4.80;99.90;;;;;;5067733;28;20033;-73
2023/04/26 00:46:56;;;;;;;1999.90;999.90;;;5.00;99.90;;;;;;5073793;28;20398;-75
2023/04/26 00:49:24;;;;;;;1999.90;999.90;;;5.20;99.90;;;;;;5048021;28;20029;-75
2023/04/26 00:51:51;;;;;;;1999.90;999.90;;;5.20;99.90;;;;;;5062283;28;20033;-75
2023/04/26 00:54:19;;;;;;;1999.90;999.90;;;5.10;99.90;;;;;;5064530;28;20024;-74
2023/04/26 00:56:45;;;;;;;1999.90;999.90;;;5.20;99.90;;;;;;5067140;28;20405;-75
2023/04/26 00:59:10;;;;;;;1999.90;999.90;;;5.10;99.90;;;;;;5069351;28;20033;-74
2023/04/26 01:01:36;;;;;;;1999.90;999.90;;;5.10;99.90;;;;;;5060462;28;20521;-75
2023/04/26 01:04:03;;;;;;;1999.90;999.90;;;5.00;99.90;;;;;;5049250;28;20047;-75
2023/04/26 01:06:33;;;;;;;1999.90;999.90;;;5.10;99.90;;;;;;5068857;28;20043;-75
2023/04/26 01:09:04;;;;;;;1999.90;999.90;;;5.00;99.90;;;;;;5066623;28;20516;-75
2023/04/26 01:11:31;;;;;;;1999.90;999.90;;;5.00;99.90;;;;;;5060527;28;20394;-75
2023/04/26 01:13:57;;;;;;;1999.90;999.90;;;5.10;99.90;;;;;;5065548;28;20033;-75
2023/04/26 01:16:23;;;;;;;1999.90;999.90;;;5.10;99.90;;;;;;5061020;28;20830;-75
2023/04/26 01:18:52;;;;;;;1999.90;999.90;;;5.10;99.90;;;;;;5055905;28;20060;-75
2023/04/26 01:21:22;;;;;;;1999.90;999.90;;;5.00;99.90;;;;;;5066703;28;20028;-75
2023/04/26 01:23:48;;;;;;;1999.90;999.90;;;5.00;99.90;;;;;;5071884;28;20093;-75
2023/04/26 01:26:14;;;;;;;1999.90;999.90;;;5.10;99.90;;;;;;5069097;28;20059;-73
2023/04/26 01:28:40;;;;;;;1999.90;999.90;;;5.00;99.90;;;;;;5074673;28;20060;-73
2023/04/26 01:31:06;;;;;;;1999.90;999.90;;;4.90;99.90;;;;;;5067103;28;20036;-74
2023/04/26 01:33:32;;;;;;;1999.90;999.90;;;4.80;99.90;;;;;;5070461;28;20041;-75
2023/04/26 01:35:57;;;;;;;1999.90;999.90;;;4.90;99.90;;;;;;5072312;28;20131;-74
2023/04/26 01:38:23;;;;;;;1999.90;999.90;;;4.90;99.90;;;;;;5077588;28;20074;-74
2023/04/26 01:40:49;;;;;;;1999.90;999.90;;;4.90;99.90;;;;;;5076560;28;20035;-75
2023/04/26 01:43:17;;;;;;;1999.90;999.90;;;5.00;99.90;;;;;;5078953;28;20032;-74
2023/04/26 01:45:46;;;;;;;1999.90;999.90;;;4.90;99.90;;;;;;5076268;28;20038;-74
2023/04/26 01:48:12;;;;;;;1999.90;999.90;;;4.80;99.90;;;;;;5061663;28;20059;-74
2023/04/26 01:50:38;;;;;;;1999.90;999.90;;;4.90;99.90;;;;;;5057994;28;20036;-75
2023/04/26 01:53:04;;;;;;;1999.90;999.90;;;4.90;99.90;;;;;;5076125;28;20040;-74
2023/04/26 01:55:29;;;;;;;1999.90;999.90;;;4.90;99.90;;;;;;5073464;28;20078;-74
2023/04/26 01:57:55;;;;;;;1999.90;999.90;;;4.80;99.90;;;;;;5076380;28;20032;-75
2023/04/26 02:00:21;;;;;;;1999.90;999.90;;;4.70;99.90;;;;;;5068991;28;20680;-74
2023/04/26 02:02:46;;;;;;;1999.90;999.90;;;4.80;99.90;;;;;;5077902;28;20024;-73
2023/04/26 02:05:12;;;;;;;1999.90;999.90;;;4.80;99.90;;;;;;5058356;28;20057;-74
2023/04/26 02:07:38;;;;;;;1999.90;999.90;;;4.70;99.90;;;;;;5075638;28;20500;-73
2023/04/26 02:10:04;;;;;;;1999.90;999.90;;;4.80;99.90;;;;;;5075441;28;20086;-74
2023/04/26 02:12:30;;;;;;;1999.90;999.90;;;4.80;99.90;;;;;;5059428;28;20497;-74
2023/04/26 02:14:56;;;;;;;1999.90;999.90;;;4.60;99.90;;;;;;5057198;28;20054;-74
2023/04/26 02:17:22;;;;;;;1999.90;999.90;;;4.60;99.90;;;;;;5070196;28;20032;-74
2023/04/26 02:19:48;;;;;;;1999.90;999.90;;;4.60;99.90;;;;;;5065691;28;21682;-74
2023/04/26 02:22:13;;;;;;;1999.90;999.90;;;4.60;99.90;;;;;;5070491;28;20493;-74
2023/04/26 02:24:39;;;;;;;1999.90;999.90;;;4.60;99.90;;;;;;5071245;28;20821;-75
2023/04/26 02:27:06;;;;;;;1999.90;999.90;;;4.50;99.90;;;;;;5074376;28;20048;-74
2023/04/26 02:29:32;;;;;;;1999.90;999.90;;;4.50;99.90;;;;;;5059988;28;20093;-74
2023/04/26 02:31:57;;;;;;;1999.90;999.90;;;4.40;99.90;;;;;;5061798;28;20395;-73
2023/04/26 02:34:23;;;;;;;1999.90;999.90;;;4.30;99.90;;;;;;5074188;28;20033;-73
2023/04/26 02:36:49;;;;;;;1999.90;999.90;;;4.30;99.90;;;;;;5069438;28;20025;-74
2023/04/26 02:39:15;;;;;;;1999.90;999.90;;;4.20;99.90;;;;;;5070746;28;20063;-74
2023/04/26 02:41:41;;;;;;;1999.90;999.90;;;4.30;99.90;;;;;;5078065;28;20042;-74
2023/04/26 02:44:07;;;;;;;1999.90;999.90;;;4.30;99.90;;;;;;5072390;28;20020;-74
2023/04/26 02:46:32;;;;;;;1999.90;999.90;;;4.40;99.90;;;;;;5076861;28;20463;-74
2023/04/26 02:48:58;;;;;;;1999.90;999.90;;;4.50;99.90;;;;;;5070021;28;20093;-74
2023/04/26 02:51:24;;;;;;;1999.90;999.90;;;4.60;99.90;;;;;;5057841;28;20028;-73
2023/04/26 02:53:49;;;;;;;1999.90;999.90;;;4.60;99.90;;;;;;5056522;28;20032;-74
2023/04/26 02:56:15;;;;;;;1999.90;999.90;;;4.60;99.90;;;;;;5071407;28;20390;-74
2023/04/26 02:58:41;;;;;;;1999.90;999.90;;;4.70;99.90;;;;;;5057365;28;20491;-73
2023/04/26 03:01:07;;;;;;;1999.90;999.90;;;4.70;99.90;;;;;;5046769;28;20024;-73
2023/04/26 03:03:33;;;;;;;1999.90;999.90;;;4.70;99.90;;;;;;5059626;28;20037;-74
2023/04/26 03:05:58;;;;;;;1999.90;999.90;;;4.70;99.90;;;;;;5074444;28;20081;-73
2023/04/26 03:08:24;;;;;;;1999.90;999.90;;;4.70;99.90;;;;;;5072034;28;20043;-73
2023/04/26 03:10:50;;;;;;;1999.90;999.90;;;4.70;99.90;;;;;;5074350;28;20028;-75
2023/04/26 03:13:15;;;;;;;1999.90;999.90;;;4.70;99.90;;;;;;5060645;28;20093;-74
2023/04/26 03:15:45;;;;;;;1999.90;999.90;;;4.80;99.90;;;;;;5058852;28;20031;-74
2023/04/26 03:18:10;;;;;;;1999.90;999.90;;;4.70;99.90;;;;;;5055500;28;20032;-74
2023/04/26 03:20:36;;;;;;;1999.90;999.90;;;4.70;99.90;;;;;;5077651;28;20711;-75
2023/04/26 03:23:02;;;;;;;1999.90;999.90;;;4.70;99.90;;;;;;5075764;28;20106;-74
2023/04/26 03:25:28;;;;;;;1999.90;999.90;;;4.60;99.90;;;;;;5071787;28;20332;-73
2023/04/26 03:27:55;;;;;;;1999.90;999.90;;;4.50;99.90;;;;;;5070588;28;20036;-75
2023/04/26 03:30:21;;;;;;;1999.90;999.90;;;4.60;99.90;;;;;;5072302;28;20039;-75
2023/04/26 03:32:46;;;;;;;1999.90;999.90;;;4.60;99.90;;;;;;5057819;28;20478;-74
2023/04/26 03:35:12;;;;;;;1999.90;999.90;;;4.60;99.90;;;;;;5074327;28;20067;-75
2023/04/26 03:37:38;;;;;;;1999.90;999.90;;;4.60;99.90;;;;;;5058937;28;20037;-74
2023/04/26 03:40:07;;;;;;;1999.90;999.90;;;4.70;99.90;;;;;;5074595;28;20472;-75
2023/04/26 03:42:33;;;;;;;1999.90;999.90;;;4.70;99.90;;;;;;5071619;28;20082;-74
2023/04/26 03:44:58;;;;;;;1999.90;999.90;;;4.70;99.90;;;;;;5072969;28;20024;-74
2023/04/26 03:47:24;;;;;;;1999.90;999.90;;;4.60;99.90;;;;;;5071787;28;20123;-73
2023/04/26 03:49:50;;;;;;;1999.90;999.90;;;4.50;99.90;;;;;;5056807;28;20028;-74
2023/04/26 03:52:15;;;;;;;1999.90;999.90;;;4.50;99.90;;;;;;5069491;28;20041;-74
2023/04/26 03:54:41;;;;;;;1999.90;999.90;;;4.50;99.90;;;;;;5074850;28;20040;-75
2023/04/26 03:57:07;;;;;;;1999.90;999.90;;;4.50;99.90;;;;;;5058133;28;20027;-74
2023/04/26 03:59:32;;;;;;;1999.90;999.90;;;4.40;99.90;;;;;;5073869;28;20020;-74
2023/04/26 04:01:58;;;;;;;1999.90;999.90;;;4.40;99.90;;;;;;5060091;28;20029;-73
2023/04/26 04:04:24;;;;;;;1999.90;999.90;;;4.40;99.90;;;;;;5071832;28;20041;-73
2023/04/26 04:06:50;;;;;;;1999.90;999.90;;;4.40;99.90;;;;;;5075837;28;20028;-73
2023/04/26 04:09:15;;;;;;;1999.90;999.90;;;4.40;99.90;;;;;;5072016;28;20237;-73
2023/04/26 04:11:41;;;;;;;1999.90;999.90;;;4.40;99.90;;;;;;5052263;28;20050;-74
2023/04/26 04:14:07;;;;;;;1999.90;999.90;;;4.30;99.90;;;;;;5052100;28;20036;-73
2023/04/26 04:16:32;;;;;;;1999.90;999.90;;;4.20;99.90;;;;;;5075828;28;20423;-74
2023/04/26 04:18:58;;;;;;;1999.90;999.90;;;4.00;99.90;;;;;;5075512;28;20107;-74
2023/04/26 04:21:24;;;;;;;1999.90;999.90;;;4.00;99.90;;;;;;5061866;28;20040;-73
2023/04/26 04:23:49;;;;;;;1999.90;999.90;;;4.00;99.90;;;;;;5071572;28;20052;-73
2023/04/26 04:26:16;;;;;;;1999.90;999.90;;;4.10;99.90;;;;;;5056386;28;20040;-75
2023/04/26 04:28:41;;;;;;;1999.90;999.90;;;4.20;99.90;;;;;;5076272;28;20047;-74
2023/04/26 04:31:08;;;;;;;1999.90;999.90;;;4.20;99.90;;;;;;5073578;28;20393;-75
2023/04/26 04:33:34;;;;;;;1999.90;999.90;;;4.20;99.90;;;;;;5057120;28;20037;-74
2023/04/26 04:36:00;;;;;;;1999.90;999.90;;;4.20;99.90;;;;;;5075261;28;20031;-75
2023/04/26 04:38:26;;;;;;;1999.90;999.90;;;4.40;99.90;;;;;;5052069;28;20032;-74
2023/04/26 04:40:52;;;;;;;1999.90;999.90;;;4.50;99.90;;;;;;5055263;28;20029;-74
2023/04/26 04:43:18;;;;;;;1999.90;999.90;;;4.50;99.90;;;;;;5070887;28;20059;-74
2023/04/26 04:45:44;;;;;;;1999.90;999.90;;;4.50;99.90;;;;;;5053681;28;20109;-74
2023/04/26 04:48:10;;;;;;;1999.90;999.90;;;4.50;99.90;;;;;;5054213;28;20032;-73
2023/04/26 04:50:38;;;;;;;1999.90;999.90;;;4.50;99.90;;;;;;5076549;28;20045;-74
2023/04/26 04:53:04;;;;;;;1999.90;999.90;;;4.50;99.90;;;;;;5064478;28;20105;-73
2023/04/26 04:55:29;;;;;;;1999.90;999.90;;;4.40;99.90;;;;;;5053339;28;20723;-74
2023/04/26 04:57:55;;;;;;;1999.90;999.90;;;4.50;99.90;;;;;;5050383;28;20051;-73
2023/04/26 05:00:21;;;;;;;1999.90;999.90;;;4.60;99.90;;;;;;5054886;28;20028;-73
2023/04/26 05:02:47;;;;;;;1999.90;999.90;;;4.60;99.90;;;;;;5068970;28;20494;-73
2023/04/26 05:05:12;;;;;;;1999.90;999.90;;;4.60;99.90;;;;;;5067623;28;20036;-73
2023/04/26 05:07:38;;;;;;;1999.90;999.90;;;4.70;99.90;;;;;;5067919;28;20049;-76
2023/04/26 05:10:05;;;;;;;1999.90;999.90;;;4.70;99.90;;;;;;5073273;28;20066;-75
2023/04/26 05:12:30;;;;;;;1999.90;999.90;;;4.60;99.90;;;;;;5065305;28;20029;-75
2023/04/26 05:14:56;;;;;;;1999.90;999.90;;;4.50;99.90;;;;;;5053744;28;20029;-75
2023/04/26 05:17:22;;;;;;;1999.90;999.90;;;4.40;99.90;;;;;;5071475;28;20033;-75
2023/04/26 05:19:47;;;;;;;1999.90;999.90;;;4.30;99.90;;;;;;5052954;28;20028;-75
2023/04/26 05:22:17;;;;;;;1999.90;999.90;;;4.20;99.90;;;;;;5049872;28;20039;-74
2023/04/26 05:24:47;;;;;;;1999.90;999.90;;;4.30;99.90;;;;;;5073782;28;20044;-76
2023/04/26 05:27:13;;;;;;;1999.90;999.90;;;4.40;99.90;;;;;;5069257;28;20028;-74
2023/04/26 05:29:39;;;;;;;1999.90;999.90;;;4.40;99.90;;;;;;5055426;28;20039;-75
2023/04/26 05:32:05;;;;;;;1999.90;999.90;;;4.50;99.90;;;;;;5070433;28;20040;-74
2023/04/26 05:34:30;;;;;;;1999.90;999.90;;;4.50;99.90;;;;;;5075210;28;20036;-74
2023/04/26 05:36:56;;;;;;;1999.90;999.90;;;4.60;99.90;;;;;;5054631;28;20032;-75
2023/04/26 05:39:22;;;;;;;1999.90;999.90;;;4.60;99.90;;;;;;5051426;28;20032;-75
2023/04/26 05:41:48;;;;;;;1999.90;999.90;;;4.80;99.90;;;;;;5063985;28;20028;-74
2023/04/26 05:44:13;;;;;;;1999.90;999.90;;;4.70;99.90;;;;;;5060078;28;20055;-76
2023/04/26 05:46:39;;;;;;;1999.90;999.90;;;4.80;99.90;;;;;;5070135;28;20059;-76
2023/04/26 05:49:05;;;;;;;1999.90;999.90;;;5.00;99.90;;;;;;5071309;28;20090;-74
2023/04/26 05:51:31;;;;;;;1999.90;999.90;;;5.30;99.90;;;;;;5073698;28;20456;-74
2023/04/26 05:53:57;;;;;;;1999.90;999.90;;;5.40;99.90;;;;;;5061732;28;20513;-74
2023/04/26 05:56:24;;;;;;;1999.90;999.90;;;5.50;99.90;;;;;;5073878;28;20115;-76
2023/04/26 05:58:50;;;;;;;1999.90;999.90;;;5.80;99.90;;;;;;5072234;28;20056;-76
2023/04/26 06:01:16;;;;;;;1999.90;999.90;;;5.90;99.90;;;;;;5075280;28;20058;-75
2023/04/26 06:03:43;;;;;;;1999.90;999.90;;;6.20;99.90;;;;;;5061697;28;20052;-74
2023/04/26 06:06:08;;;;;;;1999.90;999.90;;;6.00;99.90;;;;;;5075917;28;20051;-76
2023/04/26 06:08:34;;;;;;;1999.90;999.90;;;6.10;99.90;;;;;;5073721;28;20499;-76
2023/04/26 06:11:00;;;;;;;1999.90;999.90;;;6.10;99.90;;;;;;5077257;28;20102;-75
2023/04/26 06:13:26;;;;;;;1999.90;999.90;;;5.60;99.90;;;;;;5073395;28;20514;-76
2023/04/26 06:15:53;;;;;;;1999.90;999.90;;;6.10;99.90;;;;;;5059673;28;20032;-76
2023/04/26 06:18:19;;;;;;;1999.90;999.90;;;6.30;99.90;;;;;;5070139;28;20025;-77
2023/04/26 06:20:47;;;;;;;1999.90;999.90;;;6.40;99.90;;;;;;5061063;28;20088;-76
2023/04/26 06:23:13;;;;;;;1999.90;999.90;;;6.50;99.90;;;;;;5079303;28;20131;-75
2023/04/26 06:25:43;;;;;;;1999.90;999.90;;;6.50;99.00;;;;;;5044620;28;20207;-76
2023/04/26 06:28:09;;;;;;;1999.90;999.90;;;6.50;98.10;;;;;;5078368;28;20016;-76
2023/04/26 06:30:35;;;;;;;1999.90;999.90;;;6.40;99.90;;;;;;5078909;28;20048;-76
2023/04/26 06:33:01;;;;;;;1999.90;999.90;;;6.20;99.90;;;;;;5069352;28;20025;-76
2023/04/26 06:35:27;;;;;;;1999.90;999.90;;;6.30;98.10;;;;;;5060032;28;20052;-76
2023/04/26 06:37:52;;;;;;;1999.90;999.90;;;6.40;98.90;;;;;;5075844;28;20059;-77
2023/04/26 06:40:18;;;;;;;1999.90;999.90;;;6.20;99.90;;;;;;5075907;28;20744;-76
2023/04/26 06:42:44;;;;;;;1999.90;999.90;;;6.30;99.90;;;;;;5071320;28;20024;-76
2023/04/26 06:45:11;;;;;;;1999.90;999.90;;;6.70;99.90;;;;;;5072120;28;20036;-76
2023/04/26 06:47:37;;;;;;;1999.90;999.90;;;6.40;99.00;;;;;;5061958;28;20041;-76
2023/04/26 06:50:03;;;;;;;1999.90;999.90;;;6.70;95.30;;;;;;5076549;28;20028;-76
2023/04/26 06:52:30;;;;;;;1999.90;999.90;;;6.70;97.60;;;;;;5071264;28;20028;-76
2023/04/26 06:54:55;;;;;;;1999.90;999.90;;;6.80;96.70;;;;;;5057256;28;20027;-76
2023/04/26 06:57:21;;;;;;;1999.90;999.90;;;7.00;98.50;;;;;;5075295;28;20533;-76
2023/04/26 06:59:47;;;;;;;1999.90;999.90;;;7.10;96.60;;;;;;5055294;28;20121;-74
2023/04/26 07:02:13;;;;;;;1999.90;999.90;;;7.30;96.40;;;;;;5075128;28;20041;-77
2023/04/26 07:04:38;;;;;;;1999.90;999.90;;;7.30;96.40;;;;;;5074513;28;20085;-74
2023/04/26 07:07:04;;;;;;;1999.90;999.90;;;7.40;97.90;;;;;;5060907;28;20135;-76
2023/04/26 07:09:30;;;;;;;1999.90;999.90;;;7.50;93.00;;;;;;5071402;28;20175;-74
2023/04/26 07:11:56;;;;;;;1999.90;999.90;;;7.50;93.40;;;;;;5073728;28;20097;-74
2023/04/26 07:14:23;;;;;;;1999.90;999.90;;;7.50;90.90;;;;;;5074018;28;20470;-76
2023/04/26 07:16:48;;;;;;;1999.90;999.90;;;7.50;87.50;;;;;;5059412;28;20182;-76
2023/04/26 07:19:14;;;;;;;1999.90;999.90;;;7.40;87.10;;;;;;5078314;28;20115;-76
2023/04/26 07:21:40;;;;;;;1999.90;999.90;;;7.20;88.00;;;;;;5040554;28;20053;-77
2023/04/26 07:24:07;;;;;;;1999.90;999.90;;;7.30;88.10;;;;;;5078155;28;20316;-76
2023/04/26 07:26:35;;;;;;;1999.90;999.90;;;7.50;87.10;;;;;;5073770;28;20371;-76
2023/04/26 07:29:00;;;;;;;1999.90;999.90;;;7.50;87.30;;;;;;5075292;28;20024;-76
2023/04/26 07:31:26;;;;;;;1999.90;999.90;;;7.50;86.30;;;;;;5072204;28;20037;-76
2023/04/26 07:33:51;;;;;;;1999.90;999.90;;;7.40;86.30;;;;;;5071155;28;20029;-77
2023/04/26 07:36:17;;;;;;;1999.90;999.90;;;7.50;83.60;;;;;;5055939;28;20032;-76
2023/04/26 07:38:43;;;;;;;1999.90;999.90;;;7.60;85.30;;;;;;5075658;28;20351;-76
2023/04/26 07:41:09;;;;;;;1999.90;999.90;;;7.80;82.90;;;;;;5074164;28;20101;-76
2023/04/26 07:43:34;;;;;;;1999.90;999.90;;;7.80;85.40;;;;;;5058517;28;20087;-74
2023/04/26 07:46:01;;;;;;;1999.90;999.90;;;7.80;85.20;;;;;;5056222;28;20040;-76
2023/04/26 07:48:27;;;;;;;1999.90;999.90;;;8.40;85.50;;;;;;5073895;28;20061;-76
2023/04/26 07:50:54;;;;;;;1999.90;999.90;;;8.90;84.10;;;;;;5069871;28;20025;-76
2023/04/26 07:53:20;;;;;;;1999.90;999.90;;;9.30;82.00;;;;;;5058113;28;20102;-76
2023/04/26 07:55:46;;;;;;;1999.90;999.90;;;10.00;81.90;;;;;;5056047;28;20498;-76
2023/04/26 07:58:13;;;;;;;1999.90;999.90;;;10.20;78.90;;;;;;5068757;28;20162;-76
2023/04/26 08:00:39;;;;;;;1999.90;999.90;;;9.90;77.70;;;;;;5063459;28;20052;-74
2023/04/26 08:03:05;;;;;;;1999.90;999.90;;;10.70;75.20;;;;;;5058686;28;20301;-76
2023/04/26 08:05:31;;;;;;;1999.90;999.90;;;10.00;75.50;;;;;;5074516;28;20679;-76
2023/04/26 08:07:57;;;;;;;1999.90;999.90;;;10.10;75.80;;;;;;5059028;28;20044;-76
2023/04/26 08:10:22;;;;;;;1999.90;999.90;;;10.00;74.20;;;;;;5070878;28;20029;-75
2023/04/26 08:12:49;;;;;;;1999.90;999.90;;;10.00;75.20;;;;;;5054469;28;20035;-77
2023/04/26 08:15:15;;;;;;;1999.90;999.90;;;9.80;74.70;;;;;;5071581;28;20625;-76
2023/04/26 08:17:40;;;;;;;1999.90;999.90;;;9.80;74.90;;;;;;5058145;28;20028;-76
2023/04/26 08:20:08;;;;;;;1999.90;999.90;;;9.90;76.30;;;;;;5072936;28;20036;-76
2023/04/26 08:22:34;;;;;;;1999.90;999.90;;;10.00;75.90;;;;;;5055088;28;20119;-76
2023/04/26 08:24:59;;;;;;;1999.90;999.90;;;9.80;73.70;;;;;;5072832;28;20111;-76
2023/04/26 08:27:25;;;;;;;1999.90;999.90;;;9.70;74.80;;;;;;5071777;28;20089;-76
2023/04/26 08:29:51;;;;;;;1999.90;999.90;;;9.80;75.30;;;;;;5063664;28;20139;-76
2023/04/26 08:32:17;;;;;;;1999.90;999.90;;;9.70;74.40;;;;;;5071840;28;20564;-76
2023/04/26 08:34:42;;;;;;;1999.90;999.90;;;9.20;75.90;;;;;;5062840;28;20029;-76
2023/04/26 08:37:08;;;;;;;1999.90;999.90;;;9.30;76.20;;;;;;5066389;28;20076;-76
2023/04/26 08:39:33;;;;;;;1999.90;999.90;;;9.30;76.80;;;;;;5057253;28;20021;-76
2023/04/26 08:42:11;;;;;;;1999.90;999.90;;;9.30;77.00;;;;;;5055405;28;20028;-75
2023/04/26 08:44:37;;;;;;;1999.90;999.90;;;9.20;76.30;;;;;;5070748;28;20543;-76
2023/04/26 08:47:12;;;;;;;1999.90;999.90;;;9.20;74.70;;;;;;5066910;28;20071;-76
2023/04/26 08:49:46;;;;;;;1999.90;999.90;;;9.30;73.90;;;;;;5076574;28;20032;-76
2023/04/26 08:52:13;;;;;;;1999.90;999.90;;;9.30;74.80;;;;;;5077633;28;20024;-75
2023/04/26 08:54:40;;;;;;;1999.90;999.90;;;9.50;74.70;;;;;;5076876;28;20036;-75
2023/04/26 08:57:07;;;;;;;1999.90;999.90;;;9.60;74.10;;;;;;5074981;28;20035;-76
2023/04/26 08:59:35;;;;;;;1999.90;999.90;;;9.90;73.40;;;;;;5058529;28;20028;-76
2023/04/26 09:02:03;;;;;;;1999.90;999.90;;;10.30;71.00;;;;;;5060911;28;20031;-75
2023/04/26 09:04:30;;;;;;;1999.90;999.90;;;10.30;69.90;;;;;;5076526;28;20090;-76
2023/04/26 09:07:00;;;;;;;1999.90;999.90;;;10.50;68.90;;;;;;5082001;28;20155;-75
2023/04/26 09:09:27;;;;;;;1999.90;999.90;;;10.60;69.10;;;;;;5073204;28;20043;-75
2023/04/26 09:12:00;;;;;;;1999.90;999.90;;;10.00;70.20;;;;;;5064880;28;20032;-76
2023/04/26 09:14:26;;;;;;;1999.90;999.90;;;10.00;69.00;;;;;;5074164;28;20113;-75
2023/04/26 09:16:53;;;;;;;1999.90;999.90;;;10.00;70.50;;;;;;5062344;28;20024;-76
2023/04/26 09:19:39;;;;;;;1999.90;999.90;;;10.00;70.20;;;;;;5077553;28;20024;-76
2023/04/26 09:22:05;;;;;;;1999.90;999.90;;;10.40;68.70;;;;;;5077714;28;20435;-76
2023/04/26 09:24:57;;;;;;;1999.90;999.90;;;10.10;67.30;;;;;;5071126;28;20068;-76
2023/04/26 09:27:42;;;;;;;1999.90;999.90;;;9.90;71.70;;;;;;5069695;28;20044;-76
2023/04/26 09:30:17;;;;;;;1999.90;999.90;;;10.10;71.30;;;;;;5071278;28;20036;-76
2023/04/26 09:32:55;;;;;;;1999.90;999.90;;;10.50;72.00;;;;;;5069366;28;20061;-76
2023/04/26 09:35:27;;;;;;;1999.90;999.90;;;10.70;68.20;;;;;;5073315;28;20054;-75
2023/04/26 09:37:57;;;;;;;1999.90;999.90;;;10.70;68.80;;;;;;5071119;28;20032;-76
2023/04/26 09:40:23;;;;;;;1999.90;999.90;;;11.00;69.40;;;;;;5073968;28;20029;-76
2023/04/26 09:42:57;;;;;;;1999.90;999.90;;;11.20;70.20;;;;;;5076754;28;20081;-76
2023/04/26 09:45:24;;;;;;;1999.90;999.90;;;11.50;67.80;;;;;;5070868;28;20028;-75
2023/04/26 09:47:50;;;;;;;1999.90;999.90;;;11.10;65.90;;;;;;5076112;28;20520;-76
2023/04/26 09:50:29;;;;;;;1999.90;999.90;;;11.10;66.40;;;;;;5070245;28;20144;-76
2023/04/26 09:52:55;;;;;;;1999.90;999.90;;;11.10;67.20;;;;;;5074527;28;20111;-76
2023/04/26 09:55:30;;;;;;;1999.90;999.90;;;11.50;69.00;;;;;;5058576;28;20444;-76
2023/04/26 09:57:59;;;;;;;1999.90;999.90;;;11.70;67.30;;;;;;5056020;28;20060;-75
2023/04/26 10:00:25;;;;;;;1999.90;999.90;;;12.00;66.60;;;;;;5060300;28;20060;-76
2023/04/26 10:02:55;;;;;;;1999.90;999.90;;;12.20;64.20;;;;;;5075744;28;20024;-76
2023/04/26 10:05:22;;;;;;;1999.90;999.90;;;12.80;63.70;;;;;;5075911;28;20024;-75
2023/04/26 10:07:49;;;;;;;1999.90;999.90;;;12.80;63.90;;;;;;5071876;28;20138;-76
2023/04/26 10:10:16;;;;;;;1999.90;999.90;;;13.40;60.90;;;;;;5052195;28;20524;-76
2023/04/26 10:12:43;;;;;;;1999.90;999.90;;;12.90;59.60;;;;;;5080366;28;20032;-76
2023/04/26 10:15:10;;;;;;;1999.90;999.90;;;13.30;62.40;;;;;;5073230;28;20048;-76
2023/04/26 10:17:38;;;;;;;1999.90;999.90;;;12.20;64.10;;;;;;5070238;28;20332;-75
2023/04/26 10:20:08;;;;;;;1999.90;999.90;;;12.30;65.80;;;;;;5069747;28;20037;-76
2023/04/26 10:22:38;;;;;;;;;;;12.00;64.00;;;;;;5066344;28;20101;-76
2023/04/26 10:25:07;;;;;;;1999.90;999.90;;;12.30;62.50;;;;;;5061290;28;19912;-76
2023/04/26 10:27:43;;;;;;;1999.90;999.90;;;12.60;64.30;;;;;;5054688;28;20040;-76
2023/04/26 10:30:13;;;;;;;1999.90;999.90;;;12.70;61.30;;;;;;5073329;28;20029;-76
2023/04/26 10:33:05;;;;;;;1999.90;999.90;;;12.60;60.30;;;;;;5078318;28;20031;-76
2023/04/26 10:35:31;;;;;;;1999.90;999.90;;;12.30;58.00;;;;;;5063334;28;20040;-76
2023/04/26 10:38:00;;;;;;;1999.90;999.90;;;12.00;60.00;;;;;;5074237;28;20494;-76
2023/04/26 10:40:31;;;;;;;1999.90;999.90;;;12.40;61.60;;;;;;5073238;28;20059;-76
2023/04/26 10:43:15;;;;;;;;;;;12.70;60.40;;;;;;5060722;28;20055;-75
2023/04/26 10:45:41;;;;;;;1999.90;999.90;;;13.40;61.00;;;;;;5077782;28;19912;-76
2023/04/26 10:48:19;;;;;;;1999.90;999.90;;;13.60;55.70;;;;;;5074404;28;20084;-75
2023/04/26 10:51:00;;;;;;;1999.90;999.90;;;13.50;56.50;;;;;;5068049;28;20027;-75
2023/04/26 10:53:52;;;;;;;1999.90;999.90;;;13.60;59.10;;;;;;5062651;28;20855;-75
2023/04/26 10:56:27;;;;;;;1999.90;999.90;;;13.40;58.50;;;;;;5073261;28;20580;-75
2023/04/26 10:59:14;;;;;;;1999.90;999.90;;;12.80;57.00;;;;;;5071968;28;20060;-75
2023/04/26 11:01:40;;;;;;;1999.90;999.90;;;12.60;58.70;;;;;;5071952;28;20020;-71
2023/04/26 11:04:10;;;;;;;1999.90;999.90;;;12.10;62.00;;;;;;5070499;28;20147;-74
2023/04/26 11:06:53;;;;;;;1999.90;999.90;;;12.30;58.20;;;;;;5066338;28;20567;-74
2023/04/26 11:09:47;;;;;;;1999.90;999.90;;;12.30;55.50;;;;;;5066438;28;20106;-74
2023/04/26 11:12:17;;;;;;;1999.90;999.90;;;12.20;58.30;;;;;;5070004;28;20032;-74
2023/04/26 11:14:47;;;;;;;1999.90;999.90;;;12.90;55.90;;;;;;5071459;28;20079;-74
2023/04/26 11:17:13;;;;;;;1999.90;999.90;;;14.90;55.30;;;;;;5077324;28;20103;-75
2023/04/26 11:19:40;;;;;;;1999.90;999.90;;;15.60;49.60;;;;;;5062420;28;20490;-75
2023/04/26 11:22:07;;;;;;;1999.90;999.90;;;16.30;47.90;;;;;;5076873;28;20035;-75
2023/04/26 11:24:37;;;;;;;1999.90;999.90;;;16.50;45.50;;;;;;5075697;28;20052;-75
2023/04/26 11:27:09;;;;;;;1999.90;999.90;;;17.50;42.60;;;;;;5081313;28;20124;-75
2023/04/26 11:29:36;;;;;;;1999.90;999.90;;;16.50;45.70;;;;;;5046725;28;20040;-75
2023/04/26 11:32:02;;;;;;;1999.90;999.90;;;16.30;43.50;;;;;;5052773;28;20033;-75
2023/04/26 11:34:35;;;;;;;1999.90;999.90;;;14.70;47.60;;;;;;5072549;28;20047;-75
2023/04/26 11:37:03;;;;;;;1999.90;999.90;;;14.10;50.40;;;;;;5069864;28;20035;-75
2023/04/26 11:39:31;;;;;;;1999.90;999.90;;;14.40;47.80;;;;;;5066256;28;20027;-75
2023/04/26 11:42:06;;;;;;;1999.90;999.90;;;14.10;47.50;;;;;;5065281;28;20025;-72
2023/04/26 11:44:32;;;;;;;1999.90;999.90;;;14.60;48.70;;;;;;5070075;28;20037;-72
2023/04/26 11:47:02;;;;;;;1999.90;999.90;;;15.30;43.40;;;;;;5057274;28;20521;-71
2023/04/26 11:49:29;;;;;;;1999.90;999.90;;;14.80;44.60;;;;;;5071851;28;20044;-73
2023/04/26 11:51:55;;;;;;;1999.90;999.90;;;14.50;49.80;;;;;;5077598;28;20433;-72
2023/04/26 11:54:29;;;;;;;1999.90;999.90;;;14.60;52.00;;;;;;5068911;28;20039;-72
2023/04/26 11:56:54;;;;;;;1999.90;999.90;;;14.20;48.40;;;;;;5064078;28;20029;-72
2023/04/26 11:59:30;;;;;;;1999.90;999.90;;;14.30;49.80;;;;;;5063681;28;20078;-72
2023/04/26 12:01:57;;;;;;;1999.90;999.90;;;14.00;47.90;;;;;;5070346;28;20119;-72
2023/04/26 12:04:29;;;;;;;1999.90;999.90;;;14.20;52.40;;;;;;5078989;28;20422;-73
2023/04/26 12:06:56;;;;;;;1999.90;999.90;;;14.50;51.70;;;;;;5079396;28;20032;-73